Time;durP1;ratioP1;P1;durP2;ratioP2;P2;SDS_P1;SDS_P2;PMS_P1;PMS_P2;Temp;Humidity;BMP_temperature;BMP_pressure;BME280_temperature;BME280_humidity;BME280_pressure;Samples;Min_cycle;Max_cycle;Signal;HPM_P1;HPM_P2
2022/12/23 00:01:46;;;;;;;178.00;95.77;;;;;;;;;;4415161;32;319761;-79
2022/12/23 00:04:14;;;;;;;184.40;100.00;;;;;;;;;;4403928;32;345069;-79
2022/12/23 00:06:42;;;;;;;190.60;100.23;;;;;;;;;;4415867;32;320019;-79
2022/12/23 00:09:09;;;;;;;175.63;100.63;;;;;;;;;;4402826;32;338106;-79
2022/12/23 00:15:04;;;;;;;181.13;96.57;;;;;;;;;;4416614;32;318729;-79
2022/12/23 00:17:11;;;;;;;174.07;97.37;;;;;;;;;;4404056;32;318773;-79
2022/12/23 00:19:39;;;;;;;181.47;99.83;;;;;;;;;;4415489;32;319160;-79
2022/12/23 00:22:06;;;;;;;181.53;100.23;;;;;;;;;;4407686;32;318894;-79
2022/12/23 00:24:33;;;;;;;177.03;102.87;;;;;;;;;;4418169;32;319936;-79
2022/12/23 00:27:02;;;;;;;312.53;160.57;;;;;;;;;;4406317;32;403928;-79
2022/12/23 00:29:30;;;;;;;279.17;149.90;;;;;;;;;;4419007;32;319768;-79
2022/12/23 00:31:57;;;;;;;269.77;141.47;;;;;;;;;;4417143;32;319720;-78
2022/12/23 00:34:25;;;;;;;298.07;156.50;;;;;;;;;;4404851;32;419172;-79
2022/12/23 00:36:53;;;;;;;361.27;177.73;;;;;;;;;;4418128;32;319947;-79
2022/12/23 00:45:14;;;;;;;320.87;160.63;;;;;;;;;;4419263;32;320076;-79
2022/12/23 00:50:25;;;;;;;291.47;150.23;;;;;;;;;;4406054;32;391052;-79
2022/12/23 00:52:53;;;;;;;263.60;139.07;;;;;;;;;;4418956;32;319872;-79
2022/12/23 00:55:20;;;;;;;249.77;134.97;;;;;;;;;;4406524;32;320044;-79
2022/12/23 00:57:49;;;;;;;250.53;129.90;;;;;;;;;;4418982;32;319912;-79
2022/12/23 01:00:17;;;;;;;234.90;127.87;;;;;;;;;;4408183;32;320190;-79
2022/12/23 01:05:38;;;;;;;268.73;133.30;;;;;;;;;;4405266;32;390792;-79
2022/12/23 01:08:07;;;;;;;285.10;142.23;;;;;;;;;;4408023;32;320159;-80
2022/12/23 01:10:35;;;;;;;226.70;116.40;;;;;;;;;;4416367;32;358931;-80
2022/12/23 01:13:04;;;;;;;197.80;103.40;;;;;;;;;;4407685;32;319849;-80
2022/12/23 01:15:32;;;;;;;191.30;97.57;;;;;;;;;;4418560;32;319748;-79
2022/12/23 01:18:00;;;;;;;188.10;94.03;;;;;;;;;;4408060;32;318735;-80
2022/12/23 01:20:27;;;;;;;156.93;82.47;;;;;;;;;;4417719;32;318992;-80
2022/12/23 01:22:54;;;;;;;152.50;80.40;;;;;;;;;;4417905;32;318891;-81
2022/12/23 01:25:22;;;;;;;149.90;80.40;;;;;;;;;;4407925;32;318720;-80
2022/12/23 01:27:49;;;;;;;135.37;70.73;;;;;;;;;;4417643;32;318968;-80
2022/12/23 01:30:18;;;;;;;125.53;70.87;;;;;;;;;;4406466;32;318974;-80
2022/12/23 01:32:45;;;;;;;106.77;59.40;;;;;;;;;;4417571;32;318848;-81
2022/12/23 01:35:13;;;;;;;84.33;50.87;;;;;;;;;;4406442;32;327142;-81
2022/12/23 01:37:40;;;;;;;101.67;56.00;;;;;;;;;;4417345;32;317758;-80
2022/12/23 01:40:09;;;;;;;109.33;64.20;;;;;;;;;;4407133;32;318937;-79
2022/12/23 01:42:45;;;;;;;155.37;83.73;;;;;;;;;;4418401;32;318724;-78
2022/12/23 01:45:19;;;;;;;165.20;90.53;;;;;;;;;;4406322;32;319171;-80
2022/12/23 01:47:50;;;;;;;182.27;95.73;;;;;;;;;;4415935;32;318970;-78
2022/12/23 01:50:22;;;;;;;184.77;96.67;;;;;;;;;;4406744;32;318996;-78
2022/12/23 01:52:56;;;;;;;181.10;96.17;;;;;;;;;;4417896;32;318998;-78
2022/12/23 01:55:28;;;;;;;203.30;103.97;;;;;;;;;;4406333;32;320143;-78
2022/12/23 01:58:01;;;;;;;246.87;132.33;;;;;;;;;;4417578;32;319739;-78
2022/12/23 02:09:15;;;;;;;239.27;126.37;;;;;;;;;;4415509;32;319622;-79
2022/12/23 02:11:46;;;;;;;167.47;90.37;;;;;;;;;;4405495;32;390181;-80
2022/12/23 02:17:20;;;;;;;162.97;87.03;;;;;;;;;;4406015;32;318741;-79
2022/12/23 02:20:18;;;;;;;167.53;86.47;;;;;;;;;;4416420;32;348098;-79
2022/12/23 02:23:23;;;;;;;167.57;87.47;;;;;;;;;;4402810;32;419025;-80
2022/12/23 02:26:19;;;;;;;163.70;86.50;;;;;;;;;;4405707;32;389989;-80
2022/12/23 02:29:14;;;;;;;164.60;81.83;;;;;;;;;;4405526;32;389110;-78
2022/12/23 02:31:49;;;;;;;144.53;84.47;;;;;;;;;;4398367;32;419074;-79
2022/12/23 02:34:21;;;;;;;156.17;86.67;;;;;;;;;;4406384;32;319223;-80
2022/12/23 02:36:55;;;;;;;142.63;81.80;;;;;;;;;;4415049;32;318854;-80
2022/12/23 02:39:33;;;;;;;136.17;79.47;;;;;;;;;;4406607;32;318801;-80
2022/12/23 02:42:07;;;;;;;140.70;75.50;;;;;;;;;;4405222;32;318725;-80
2022/12/23 02:44:42;;;;;;;145.17;78.60;;;;;;;;;;4416834;32;318840;-80
2022/12/23 02:47:15;;;;;;;144.57;78.13;;;;;;;;;;4407191;32;318826;-78
2022/12/23 02:49:45;;;;;;;149.40;85.13;;;;;;;;;;4414577;32;318536;-79
2022/12/23 02:52:14;;;;;;;169.70;92.17;;;;;;;;;;4407076;32;319290;-80
2022/12/23 02:54:46;;;;;;;173.67;98.87;;;;;;;;;;4416633;32;318914;-80
2022/12/23 02:57:17;;;;;;;188.03;98.87;;;;;;;;;;4405235;32;318768;-78
2022/12/23 02:59:47;;;;;;;192.87;103.53;;;;;;;;;;4414591;32;318522;-78
2022/12/23 03:02:16;;;;;;;180.40;98.47;;;;;;;;;;4405190;32;319796;-78
2022/12/23 03:04:44;;;;;;;172.97;92.60;;;;;;;;;;4416562;32;318761;-79
2022/12/23 03:07:17;;;;;;;177.70;95.67;;;;;;;;;;4406051;32;328837;-78
2022/12/23 03:09:56;;;;;;;172.30;97.13;;;;;;;;;;4416320;32;318691;-78
2022/12/23 03:12:33;;;;;;;173.90;91.43;;;;;;;;;;4406125;32;318577;-77
2022/12/23 03:15:24;;;;;;;170.63;89.83;;;;;;;;;;4406105;32;318912;-80
2022/12/23 03:18:02;;;;;;;174.27;89.77;;;;;;;;;;4415906;32;318716;-78
2022/12/23 03:20:39;;;;;;;168.07;89.47;;;;;;;;;;4402132;32;419522;-77
2022/12/23 03:23:17;;;;;;;157.40;88.93;;;;;;;;;;4405488;32;339515;-77
2022/12/23 03:25:50;;;;;;;174.30;89.10;;;;;;;;;;4415056;32;318701;-77
2022/12/23 03:28:25;;;;;;;168.03;93.00;;;;;;;;;;4403553;32;318808;-79
2022/12/23 03:30:57;;;;;;;177.40;94.77;;;;;;;;;;4414682;32;318706;-82
2022/12/23 03:33:30;;;;;;;172.70;95.20;;;;;;;;;;4402081;32;422314;-78
2022/12/23 03:36:06;;;;;;;179.43;91.30;;;;;;;;;;4415574;32;318644;-79
2022/12/23 03:38:42;;;;;;;181.80;96.93;;;;;;;;;;4399481;32;420370;-79
2022/12/23 03:41:18;;;;;;;182.63;97.57;;;;;;;;;;4402219;32;335821;-79
2022/12/23 03:43:52;;;;;;;175.80;99.13;;;;;;;;;;4415708;32;318716;-79
2022/12/23 03:46:28;;;;;;;173.20;96.27;;;;;;;;;;4403548;32;318809;-79
2022/12/23 03:49:00;;;;;;;172.00;91.93;;;;;;;;;;4416572;32;318900;-78
2022/12/23 03:51:34;;;;;;;148.43;86.70;;;;;;;;;;4400954;32;417987;-80
2022/12/23 03:54:05;;;;;;;158.93;90.87;;;;;;;;;;4400930;32;319004;-81
2022/12/23 03:56:38;;;;;;;176.60;96.40;;;;;;;;;;4414696;32;318885;-80
2022/12/23 03:59:11;;;;;;;183.53;104.20;;;;;;;;;;4404959;32;319194;-80
2022/12/23 04:01:43;;;;;;;192.80;99.23;;;;;;;;;;4416017;32;319846;-82
2022/12/23 04:04:17;;;;;;;164.80;94.83;;;;;;;;;;4405424;32;318924;-80
2022/12/23 04:06:52;;;;;;;173.23;96.60;;;;;;;;;;4415983;32;318899;-83
2022/12/23 04:09:21;;;;;;;173.67;97.20;;;;;;;;;;4403340;32;318928;-79
2022/12/23 04:11:49;;;;;;;183.60;97.50;;;;;;;;;;4416652;32;318923;-80
2022/12/23 04:14:18;;;;;;;196.70;102.67;;;;;;;;;;4404310;32;318736;-81
2022/12/23 04:16:45;;;;;;;204.20;106.67;;;;;;;;;;4414981;32;319923;-80
2022/12/23 04:19:14;;;;;;;205.40;104.30;;;;;;;;;;4406092;32;319783;-81
2022/12/23 04:21:42;;;;;;;184.03;96.23;;;;;;;;;;4415908;32;319874;-81
2022/12/23 04:24:09;;;;;;;150.47;86.77;;;;;;;;;;4403088;32;331778;-82
2022/12/23 04:26:37;;;;;;;166.37;87.73;;;;;;;;;;4416424;32;319132;-81
2022/12/23 04:29:04;;;;;;;123.97;70.73;;;;;;;;;;4405722;32;318861;-79
2022/12/23 04:31:31;;;;;;;117.23;69.40;;;;;;;;;;4415270;32;318917;-79
2022/12/23 04:33:59;;;;;;;105.23;59.03;;;;;;;;;;4415966;32;317595;-79
2022/12/23 04:36:28;;;;;;;106.13;62.27;;;;;;;;;;4402123;32;418380;-79
2022/12/23 04:38:55;;;;;;;114.77;66.03;;;;;;;;;;4415306;32;318984;-78
2022/12/23 04:41:23;;;;;;;122.27;70.40;;;;;;;;;;4405627;32;318959;-79
2022/12/23 04:43:51;;;;;;;139.07;78.00;;;;;;;;;;4415146;32;360922;-79
2022/12/23 04:46:19;;;;;;;143.70;83.77;;;;;;;;;;4403795;32;318878;-79
2022/12/23 04:48:46;;;;;;;161.57;83.87;;;;;;;;;;4415109;32;318840;-79
2022/12/23 04:51:14;;;;;;;154.83;85.53;;;;;;;;;;4404855;32;318755;-82
2022/12/23 04:53:43;;;;;;;160.77;90.90;;;;;;;;;;4414096;32;318821;-80
2022/12/23 04:56:10;;;;;;;156.10;90.63;;;;;;;;;;4403317;32;319124;-80
2022/12/23 04:58:38;;;;;;;172.10;91.10;;;;;;;;;;4415735;32;318838;-81
2022/12/23 05:01:08;;;;;;;190.83;101.27;;;;;;;;;;4402639;32;335235;-81
2022/12/23 05:03:35;;;;;;;199.50;104.43;;;;;;;;;;4416233;32;321792;-82
2022/12/23 05:06:02;;;;;;;183.60;99.67;;;;;;;;;;4404612;32;319928;-80
2022/12/23 05:08:31;;;;;;;189.37;98.20;;;;;;;;;;4418199;32;318697;-82
2022/12/23 05:10:59;;;;;;;179.33;98.37;;;;;;;;;;4418301;32;318863;-82
2022/12/23 05:13:27;;;;;;;202.67;99.67;;;;;;;;;;4406078;32;389157;-82
2022/12/23 05:15:55;;;;;;;147.57;83.90;;;;;;;;;;4417204;32;319165;-81
2022/12/23 05:18:23;;;;;;;175.63;94.10;;;;;;;;;;4407493;32;319423;-79
2022/12/23 05:20:50;;;;;;;160.67;86.90;;;;;;;;;;4418167;32;318866;-79
2022/12/23 05:23:17;;;;;;;161.13;89.73;;;;;;;;;;4407316;32;318722;-80
2022/12/23 05:25:51;;;;;;;179.73;94.97;;;;;;;;;;4418000;32;319060;-79
2022/12/23 05:28:20;;;;;;;170.10;91.33;;;;;;;;;;4408424;32;319140;-81
2022/12/23 05:30:48;;;;;;;178.73;90.50;;;;;;;;;;4417817;32;319301;-78
2022/12/23 05:33:16;;;;;;;164.23;91.60;;;;;;;;;;4405278;32;324375;-78
2022/12/23 05:35:43;;;;;;;164.47;90.53;;;;;;;;;;4417371;32;318785;-78
2022/12/23 05:38:10;;;;;;;164.03;88.13;;;;;;;;;;4405188;32;354844;-78
2022/12/23 05:40:38;;;;;;;167.37;90.80;;;;;;;;;;4416923;32;319097;-78
2022/12/23 05:43:05;;;;;;;151.87;85.53;;;;;;;;;;4407787;32;318864;-79
2022/12/23 05:45:37;;;;;;;172.67;92.50;;;;;;;;;;4415688;32;318965;-79
2022/12/23 05:48:04;;;;;;;168.53;90.47;;;;;;;;;;4404756;32;322651;-78
2022/12/23 05:50:32;;;;;;;168.00;92.07;;;;;;;;;;4416988;32;318981;-78
2022/12/23 05:53:00;;;;;;;176.53;99.17;;;;;;;;;;4407360;32;318941;-79
2022/12/23 05:55:27;;;;;;;197.07;107.57;;;;;;;;;;4416312;32;342569;-79
2022/12/23 05:57:55;;;;;;;210.30;113.20;;;;;;;;;;4416503;32;319907;-80
2022/12/23 06:00:22;;;;;;;207.33;116.40;;;;;;;;;;4407005;32;320178;-80
2022/12/23 06:02:51;;;;;;;215.83;118.53;;;;;;;;;;4416915;32;319682;-81
2022/12/23 06:05:19;;;;;;;208.07;114.07;;;;;;;;;;4405202;32;320136;-80
2022/12/23 06:07:46;;;;;;;208.17;109.03;;;;;;;;;;4417561;32;319878;-80
2022/12/23 06:10:14;;;;;;;204.13;109.10;;;;;;;;;;4404938;32;319892;-80
2022/12/23 06:12:41;;;;;;;209.90;111.60;;;;;;;;;;4418235;32;319801;-80
2022/12/23 06:15:09;;;;;;;205.23;113.17;;;;;;;;;;4405716;32;319951;-82
2022/12/23 06:17:37;;;;;;;197.90;109.47;;;;;;;;;;4415680;32;319901;-80
2022/12/23 06:20:07;;;;;;;227.63;122.53;;;;;;;;;;4405745;32;320061;-81
2022/12/23 06:22:35;;;;;;;232.97;125.87;;;;;;;;;;4416255;32;320015;-78
2022/12/23 06:25:02;;;;;;;247.70;125.57;;;;;;;;;;4406018;32;319933;-81
2022/12/23 06:27:29;;;;;;;232.57;131.90;;;;;;;;;;4414616;32;320086;-82
2022/12/23 06:29:57;;;;;;;233.87;130.97;;;;;;;;;;4416299;32;319918;-80
2022/12/23 06:32:24;;;;;;;282.93;149.10;;;;;;;;;;4405273;32;326823;-80
2022/12/23 06:34:56;;;;;;;286.77;159.33;;;;;;;;;;4415900;32;319967;-81
2022/12/23 06:37:25;;;;;;;254.77;146.67;;;;;;;;;;4385669;32;319872;-81
2022/12/23 06:39:52;;;;;;;283.97;158.90;;;;;;;;;;4416720;32;320124;-81
2022/12/23 06:42:19;;;;;;;264.17;146.07;;;;;;;;;;4403555;32;319786;-80
2022/12/23 06:44:47;;;;;;;252.73;148.57;;;;;;;;;;4416491;32;320040;-81
2022/12/23 06:47:14;;;;;;;267.13;145.27;;;;;;;;;;4406345;32;320160;-81
2022/12/23 06:49:43;;;;;;;262.43;149.93;;;;;;;;;;4415051;32;319882;-81
2022/12/23 06:52:10;;;;;;;274.07;149.60;;;;;;;;;;4403964;32;358267;-81
2022/12/23 06:54:39;;;;;;;273.87;155.70;;;;;;;;;;4415878;32;320028;-80
2022/12/23 06:57:06;;;;;;;274.37;154.70;;;;;;;;;;4404642;32;320110;-81
2022/12/23 06:59:34;;;;;;;267.63;154.20;;;;;;;;;;4415594;32;319963;-81
2022/12/23 07:02:01;;;;;;;276.73;162.17;;;;;;;;;;4402362;32;353699;-83
2022/12/23 07:04:29;;;;;;;263.53;153.40;;;;;;;;;;4415927;32;319849;-84
2022/12/23 07:06:56;;;;;;;259.80;149.33;;;;;;;;;;4416162;32;331676;-83
2022/12/23 07:09:25;;;;;;;269.37;156.20;;;;;;;;;;4404627;32;320266;-81
2022/12/23 07:11:54;;;;;;;298.80;167.27;;;;;;;;;;4415757;32;319917;-81
2022/12/23 07:14:21;;;;;;;299.70;173.33;;;;;;;;;;4405707;32;320075;-81
2022/12/23 07:16:49;;;;;;;302.50;172.77;;;;;;;;;;4414244;32;319896;-82
2022/12/23 07:19:16;;;;;;;340.30;195.73;;;;;;;;;;4396908;32;320228;-81
2022/12/23 07:21:43;;;;;;;336.13;191.17;;;;;;;;;;4402859;32;349942;-81
2022/12/23 07:24:11;;;;;;;312.70;179.10;;;;;;;;;;4406024;32;320099;-81
2022/12/23 07:26:39;;;;;;;282.17;163.63;;;;;;;;;;4415449;32;320051;-81
2022/12/23 07:29:08;;;;;;;274.77;163.33;;;;;;;;;;4405140;32;320113;-80
2022/12/23 07:31:35;;;;;;;279.20;163.73;;;;;;;;;;4416355;32;320136;-81
2022/12/23 07:34:03;;;;;;;306.80;174.10;;;;;;;;;;4402569;32;320322;-80
2022/12/23 07:36:30;;;;;;;315.13;185.60;;;;;;;;;;4414762;32;320179;-80
2022/12/23 07:38:58;;;;;;;306.47;189.23;;;;;;;;;;4413536;32;320005;-81
2022/12/23 07:41:25;;;;;;;312.10;181.67;;;;;;;;;;4404749;32;319974;-83
2022/12/23 07:43:52;;;;;;;320.83;188.23;;;;;;;;;;4415776;32;320190;-82
2022/12/23 07:46:21;;;;;;;299.77;174.27;;;;;;;;;;4403266;32;319905;-82
2022/12/23 07:48:49;;;;;;;305.50;182.50;;;;;;;;;;4414378;32;319954;-82
2022/12/23 07:51:16;;;;;;;260.33;150.93;;;;;;;;;;4404963;32;320045;-82
2022/12/23 07:53:44;;;;;;;251.07;143.17;;;;;;;;;;4413038;32;320013;-83
2022/12/23 07:56:11;;;;;;;224.23;129.77;;;;;;;;;;4404213;32;319929;-81
2022/12/23 07:58:39;;;;;;;192.50;115.30;;;;;;;;;;4415722;32;319996;-81
2022/12/23 08:01:08;;;;;;;187.83;108.20;;;;;;;;;;4389367;32;319802;-81
2022/12/23 08:03:37;;;;;;;194.87;116.43;;;;;;;;;;4410325;32;320106;-82
2022/12/23 08:06:06;;;;;;;203.43;120.87;;;;;;;;;;4400740;32;320072;-83
2022/12/23 08:08:34;;;;;;;271.17;155.00;;;;;;;;;;4416330;32;319942;-80
2022/12/23 08:11:04;;;;;;;228.60;132.13;;;;;;;;;;4403342;32;320063;-80
2022/12/23 08:13:33;;;;;;;202.80;117.53;;;;;;;;;;4414220;32;320102;-79
2022/12/23 08:16:02;;;;;;;176.67;107.03;;;;;;;;;;4404082;32;319975;-80
2022/12/23 08:18:31;;;;;;;182.10;110.77;;;;;;;;;;4415105;32;320350;-83
2022/12/23 08:21:01;;;;;;;203.33;119.40;;;;;;;;;;4415596;32;320005;-84
2022/12/23 08:23:29;;;;;;;180.40;108.13;;;;;;;;;;4401537;32;419858;-89
2022/12/23 08:26:02;;;;;;;265.43;139.53;;;;;;;;;;4417696;32;319968;-84
2022/12/23 08:28:30;;;;;;;216.10;128.47;;;;;;;;;;4403109;32;420238;-82
2022/12/23 08:31:04;;;;;;;177.30;110.90;;;;;;;;;;4415413;32;319908;-86
2022/12/23 08:33:32;;;;;;;179.70;105.73;;;;;;;;;;4400877;32;419111;-86
2022/12/23 08:36:02;;;;;;;157.33;94.43;;;;;;;;;;4413878;32;319853;-87
2022/12/23 08:38:29;;;;;;;143.07;82.73;;;;;;;;;;4416127;32;319429;-88
2022/12/23 08:40:57;;;;;;;109.97;70.10;;;;;;;;;;4414399;32;342705;-87
2022/12/23 08:43:24;;;;;;;111.67;71.07;;;;;;;;;;4407280;32;319307;-86
2022/12/23 08:45:52;;;;;;;119.63;72.90;;;;;;;;;;4415501;32;318843;-90
2022/12/23 08:48:19;;;;;;;111.33;69.13;;;;;;;;;;4407585;32;318689;-87
2022/12/23 08:50:47;;;;;;;123.73;74.03;;;;;;;;;;4416243;32;318957;-88
2022/12/23 08:53:16;;;;;;;132.30;82.10;;;;;;;;;;4409272;32;318920;-90
2022/12/23 08:55:46;;;;;;;149.10;87.27;;;;;;;;;;4417786;32;318857;-89
2022/12/23 08:58:15;;;;;;;126.53;78.10;;;;;;;;;;4407286;32;319090;-88
2022/12/23 09:00:43;;;;;;;127.00;77.97;;;;;;;;;;4415496;32;318968;-86
2022/12/23 09:03:10;;;;;;;135.53;80.87;;;;;;;;;;4407620;32;318988;-88
2022/12/23 09:05:41;;;;;;;129.87;79.33;;;;;;;;;;4417041;32;319008;-91
2022/12/23 09:08:08;;;;;;;140.90;81.07;;;;;;;;;;4406874;32;318746;-88
2022/12/23 09:10:41;;;;;;;137.13;84.13;;;;;;;;;;4414680;32;318709;-87
2022/12/23 09:13:09;;;;;;;138.67;82.80;;;;;;;;;;4405773;32;318790;-85
2022/12/23 09:15:40;;;;;;;135.73;81.70;;;;;;;;;;4417708;32;319457;-84
2022/12/23 09:18:08;;;;;;;143.80;90.50;;;;;;;;;;4405132;32;319011;-87
2022/12/23 09:20:35;;;;;;;137.20;83.30;;;;;;;;;;4413957;32;318829;-85
2022/12/23 09:23:03;;;;;;;144.40;86.10;;;;;;;;;;4406491;32;322353;-84
2022/12/23 09:25:31;;;;;;;142.43;87.57;;;;;;;;;;4417444;32;319126;-86
2022/12/23 09:27:59;;;;;;;139.67;87.23;;;;;;;;;;4418049;32;318934;-87
2022/12/23 09:30:27;;;;;;;144.63;89.40;;;;;;;;;;4404504;32;418140;-89
2022/12/23 09:32:54;;;;;;;140.17;89.50;;;;;;;;;;4418359;32;318715;-89
2022/12/23 09:35:22;;;;;;;155.70;86.77;;;;;;;;;;4409353;32;318852;-89
2022/12/23 09:37:50;;;;;;;142.30;86.90;;;;;;;;;;4416936;32;318713;-82
2022/12/23 09:40:21;;;;;;;136.87;83.93;;;;;;;;;;4409419;32;318778;-89
2022/12/23 09:43:01;;;;;;;150.27;86.87;;;;;;;;;;4421198;32;318599;-87
2022/12/23 09:45:49;;;;;;;142.43;84.77;;;;;;;;;;4406392;32;417835;-89
2022/12/23 09:48:19;;;;;;;132.07;80.60;;;;;;;;;;4409474;32;318693;-85
2022/12/23 09:50:47;;;;;;;133.83;84.53;;;;;;;;;;4417691;32;318652;-83
2022/12/23 09:53:18;;;;;;;142.67;87.20;;;;;;;;;;4408447;32;318954;-91
2022/12/23 09:55:51;;;;;;;139.23;85.90;;;;;;;;;;4426449;32;318910;-81
2022/12/23 09:58:27;;;;;;;137.53;84.70;;;;;;;;;;4418622;32;318513;-85
2022/12/23 10:01:07;;;;;;;141.43;89.97;;;;;;;;;;4395068;27;319553;-87
2022/12/23 10:03:42;;;;;;;147.07;84.50;;;;;;;;;;4361292;32;421304;-87
2022/12/23 10:06:20;;;;;;;129.13;78.93;;;;;;;;;;4364567;32;319603;-86
2022/12/23 10:08:50;;;;;;;138.70;83.13;;;;;;;;;;4374266;32;319330;-87
2022/12/23 10:11:23;;;;;;;126.30;80.00;;;;;;;;;;4364827;32;319301;-87
2022/12/23 10:13:52;;;;;;;125.87;79.73;;;;;;;;;;4373071;32;319295;-87
2022/12/23 10:16:23;;;;;;;118.10;74.03;;;;;;;;;;4363160;32;319610;-87
2022/12/23 10:18:55;;;;;;;117.00;70.03;;;;;;;;;;4373113;32;319536;-86
2022/12/23 10:21:29;;;;;;;112.87;68.53;;;;;;;;;;4364274;32;319457;-85
2022/12/23 10:23:57;;;;;;;102.60;65.37;;;;;;;;;;4372600;32;318900;-85
2022/12/23 10:26:27;;;;;;;107.33;67.43;;;;;;;;;;4363986;32;319378;-87
2022/12/23 10:29:00;;;;;;;95.07;63.70;;;;;;;;;;4372266;32;336562;-87
2022/12/23 10:31:39;;;;;;;104.67;63.10;;;;;;;;;;4361261;32;417104;-86
2022/12/23 10:34:17;;;;;;;102.17;63.67;;;;;;;;;;4362658;32;318694;-88
2022/12/23 10:36:53;;;;;;;94.00;57.23;;;;;;;;;;4373984;32;319357;-86
2022/12/23 10:39:28;;;;;;;86.27;53.03;;;;;;;;;;4363811;32;317538;-85
2022/12/23 10:42:05;;;;;;;97.73;58.87;;;;;;;;;;4372264;32;342343;-85
2022/12/23 10:44:47;;;;;;;124.87;71.60;;;;;;;;;;4361321;32;418323;-86
2022/12/23 10:47:21;;;;;;;124.43;76.83;;;;;;;;;;4364527;32;319273;-87
2022/12/23 10:50:00;;;;;;;121.63;77.93;;;;;;;;;;4372933;32;319438;-86
2022/12/23 10:52:32;;;;;;;128.47;76.10;;;;;;;;;;4359740;32;419269;-87
2022/12/23 10:54:59;;;;;;;128.03;78.90;;;;;;;;;;4373341;32;323124;-87
2022/12/23 10:57:26;;;;;;;133.43;77.63;;;;;;;;;;4360696;32;417836;-86
2022/12/23 10:59:53;;;;;;;141.63;83.70;;;;;;;;;;4379040;32;318656;-87
2022/12/23 11:02:35;;;;;;;138.70;81.43;;;;;;;;;;4378450;32;319366;-87
2022/12/23 11:05:02;;;;;;;143.37;80.73;;;;;;;;;;4377876;32;339438;-87
2022/12/23 11:07:30;;;;;;;130.90;78.57;;;;;;;;;;4388682;32;319512;-88
2022/12/23 11:10:01;;;;;;;141.13;81.50;;;;;;;;;;4388251;32;319226;-87
2022/12/23 11:12:46;;;;;;;140.60;83.73;;;;;;;;;;4375447;32;418180;-87
2022/12/23 11:15:28;;;;;;;108.30;61.60;;;;;;;;;;4378235;32;319338;-88
2022/12/23 11:18:06;;;;;;;82.63;55.17;;;;;;;;;;4387465;32;319376;-88
2022/12/23 11:20:35;;;;;;;91.23;55.57;;;;;;;;;;4375459;32;418820;-86
2022/12/23 11:23:03;;;;;;;81.27;53.80;;;;;;;;;;4377191;32;318314;-88
2022/12/23 11:25:36;;;;;;;85.90;52.17;;;;;;;;;;4386976;32;318202;-88
2022/12/23 11:28:06;;;;;;;96.93;56.57;;;;;;;;;;4375954;32;339963;-86
2022/12/23 11:30:52;;;;;;;102.53;58.50;;;;;;;;;;4388481;32;318052;-86
2022/12/23 11:33:25;;;;;;;102.90;59.47;;;;;;;;;;4377016;32;319328;-86
2022/12/23 11:36:01;;;;;;;96.17;58.07;;;;;;;;;;4387340;32;319373;-85
2022/12/23 11:38:28;;;;;;;69.97;42.63;;;;;;;;;;4375555;32;418667;-85
2022/12/23 11:40:55;;;;;;;60.60;37.13;;;;;;;;;;4388118;32;318283;-85
2022/12/23 11:43:25;;;;;;;49.03;32.10;;;;;;;;;;4378016;32;318373;-85
2022/12/23 11:46:18;;;;;;;49.80;32.40;;;;;;;;;;4388283;32;317573;-85
2022/12/23 11:48:46;;;;;;;48.60;29.43;;;;;;;;;;4374127;32;416882;-85
2022/12/23 11:51:13;;;;;;;52.47;29.93;;;;;;;;;;4378651;32;318606;-85
2022/12/23 11:53:45;;;;;;;67.10;37.87;;;;;;;;;;4387923;32;318081;-84
2022/12/23 11:56:14;;;;;;;62.50;37.90;;;;;;;;;;4378362;32;318294;-85
2022/12/23 11:58:47;;;;;;;50.67;30.50;;;;;;;;;;4387513;32;318198;-85
2022/12/23 12:01:16;;;;;;;42.13;27.60;;;;;;;;;;4376478;32;322960;-86
2022/12/23 12:03:49;;;;;;;43.30;26.83;;;;;;;;;;4386624;32;317522;-88
2022/12/23 12:06:18;;;;;;;52.30;26.63;;;;;;;;;;4376352;32;347020;-85
2022/12/23 12:08:49;;;;;;;36.30;21.53;;;;;;;;;;4387733;32;317999;-86
2022/12/23 12:11:20;;;;;;;34.83;23.13;;;;;;;;;;4378198;32;318133;-86
2022/12/23 12:13:49;;;;;;;41.60;23.70;;;;;;;;;;4386335;32;318000;-87
2022/12/23 12:16:51;;;;;;;45.97;26.47;;;;;;;;;;4377858;32;317628;-84
2022/12/23 12:19:28;;;;;;;40.13;25.80;;;;;;;;;;4380739;32;318171;-85
2022/12/23 12:21:59;;;;;;;39.40;23.03;;;;;;;;;;4391097;32;317753;-85
2022/12/23 12:24:31;;;;;;;36.10;22.73;;;;;;;;;;4378092;32;418473;-85
2022/12/23 12:27:02;;;;;;;37.77;23.27;;;;;;;;;;4391106;32;318242;-85
2022/12/23 12:29:37;;;;;;;38.07;23.37;;;;;;;;;;4378720;32;417376;-86
2022/12/23 12:32:09;;;;;;;51.73;28.87;;;;;;;;;;4381699;32;317333;-86
2022/12/23 12:34:45;;;;;;;53.70;28.93;;;;;;;;;;4388591;32;354517;-85
2022/12/23 12:37:21;;;;;;;46.57;28.87;;;;;;;;;;4382481;32;318257;-85
2022/12/23 12:39:53;;;;;;;42.93;26.93;;;;;;;;;;4389540;32;318246;-85
2022/12/23 12:42:27;;;;;;;48.40;30.57;;;;;;;;;;4379957;32;318740;-86
2022/12/23 12:45:01;;;;;;;61.60;34.43;;;;;;;;;;4390223;32;317537;-86
2022/12/23 12:47:36;;;;;;;52.00;32.97;;;;;;;;;;4376650;32;417290;-86
2022/12/23 12:50:12;;;;;;;51.27;33.10;;;;;;;;;;4379153;32;317480;-86
2022/12/23 12:52:41;;;;;;;64.10;41.40;;;;;;;;;;4390765;32;318210;-86
2022/12/23 12:55:17;;;;;;;67.30;41.87;;;;;;;;;;4380656;32;318251;-86
2022/12/23 12:57:44;;;;;;;82.60;49.80;;;;;;;;;;4390638;32;318104;-87
2022/12/23 13:00:16;;;;;;;78.77;53.90;;;;;;;;;;4380360;32;318154;-85
2022/12/23 13:03:03;;;;;;;87.80;53.27;;;;;;;;;;4390728;32;317549;-86
2022/12/23 13:05:51;;;;;;;83.53;54.30;;;;;;;;;;4376165;32;418170;-87
2022/12/23 13:08:28;;;;;;;84.83;52.30;;;;;;;;;;4379332;32;318623;-86
2022/12/23 13:11:00;;;;;;;74.07;45.97;;;;;;;;;;4390029;32;318056;-86
2022/12/23 13:13:39;;;;;;;66.87;44.23;;;;;;;;;;4377260;32;418092;-85
2022/12/23 13:16:16;;;;;;;72.57;44.93;;;;;;;;;;4380210;32;318056;-85
2022/12/23 13:18:53;;;;;;;67.93;41.23;;;;;;;;;;4389747;32;327348;-87
2022/12/23 13:21:26;;;;;;;62.27;41.97;;;;;;;;;;4378800;32;318243;-86
2022/12/23 13:24:00;;;;;;;67.03;42.53;;;;;;;;;;4389395;32;317991;-84
2022/12/23 13:26:35;;;;;;;72.23;44.33;;;;;;;;;;4377440;32;418589;-86
2022/12/23 13:29:30;;;;;;;75.97;45.77;;;;;;;;;;4378930;32;318420;-85
2022/12/23 13:32:03;;;;;;;78.63;48.67;;;;;;;;;;4390202;32;318456;-86
2022/12/23 13:34:41;;;;;;;80.07;49.87;;;;;;;;;;4375945;32;418471;-87
2022/12/23 13:37:18;;;;;;;80.53;47.70;;;;;;;;;;4365351;32;318325;-87
2022/12/23 13:39:55;;;;;;;89.07;50.07;;;;;;;;;;4390004;32;318805;-87
2022/12/23 13:42:28;;;;;;;64.17;37.57;;;;;;;;;;4379108;32;317392;-86
2022/12/23 13:44:56;;;;;;;53.40;33.40;;;;;;;;;;4390273;32;317617;-86
2022/12/23 13:47:44;;;;;;;50.73;32.90;;;;;;;;;;4379887;32;318349;-85
2022/12/23 13:50:15;;;;;;;54.33;34.73;;;;;;;;;;4380157;32;318328;-87
2022/12/23 13:53:01;;;;;;;53.63;34.13;;;;;;;;;;4387920;32;318243;-87
2022/12/23 13:55:54;;;;;;;59.00;32.90;;;;;;;;;;4376414;32;418824;-86
2022/12/23 13:58:24;;;;;;;52.33;33.80;;;;;;;;;;4379802;32;317469;-86
2022/12/23 14:00:57;;;;;;;59.80;30.57;;;;;;;;;;4388302;32;318566;-87
2022/12/23 14:03:25;;;;;;;59.30;36.37;;;;;;;;;;4375725;32;416430;-86
2022/12/23 14:05:53;;;;;;;55.63;38.03;;;;;;;;;;4389844;32;317490;-86
2022/12/23 14:08:28;;;;;;;54.03;34.03;;;;;;;;;;4378716;32;318353;-86
2022/12/23 14:10:58;;;;;;;62.07;33.20;;;;;;;;;;4389097;32;317609;-85
2022/12/23 14:13:27;;;;;;;47.40;29.73;;;;;;;;;;4379476;32;318309;-86
2022/12/23 14:16:33;;;;;;;50.47;28.93;;;;;;;;;;4389383;32;318194;-86
2022/12/23 14:19:20;;;;;;;50.97;29.43;;;;;;;;;;4371658;32;417859;-86
2022/12/23 14:21:55;;;;;;;60.77;32.23;;;;;;;;;;4389199;32;318190;-85
2022/12/23 14:25:00;;;;;;;57.90;36.17;;;;;;;;;;4378490;32;318429;-85
2022/12/23 14:27:36;;;;;;;66.20;37.00;;;;;;;;;;4329223;32;418401;-86
2022/12/23 14:30:12;;;;;;;90.60;49.73;;;;;;;;;;4370830;32;318492;-86
2022/12/23 14:32:47;;;;;;;101.37;55.47;;;;;;;;;;4388180;32;318361;-86
2022/12/23 14:35:22;;;;;;;117.97;63.37;;;;;;;;;;4378230;32;319346;-85
2022/12/23 14:38:09;;;;;;;95.93;56.03;;;;;;;;;;4390257;32;318561;-86
2022/12/23 14:41:00;;;;;;;104.17;52.93;;;;;;;;;;4375982;32;418032;-88
2022/12/23 14:43:33;;;;;;;165.47;94.80;;;;;;;;;;4377358;32;419339;-86